createdAt,value
2017-07-28T00:00:32.464Z,2.73
2017-07-28T00:02:59.408Z,2.73
2017-07-28T00:05:27.456Z,2.97
2017-07-28T00:07:53.747Z,4.03
2017-07-28T00:10:19.920Z,2.80
2017-07-28T00:12:46.090Z,3.30
2017-07-28T00:17:48.094Z,3.10
2017-07-28T00:20:14.305Z,3.37
2017-07-28T00:22:40.616Z,3.67
2017-07-28T00:25:06.822Z,3.17
2017-07-28T00:27:32.990Z,2.83
2017-07-28T00:29:59.235Z,3.50
2017-07-28T00:32:25.508Z,3.90
2017-07-28T00:34:52.448Z,3.83
2017-07-28T00:37:18.639Z,4.10
2017-07-28T00:39:45.061Z,4.10
2017-07-28T00:42:11.349Z,4.30
2017-07-28T00:44:38.350Z,3.90
2017-07-28T00:47:04.596Z,4.40
2017-07-28T00:49:30.785Z,5.00
2017-07-28T00:51:57.136Z,3.37
2017-07-28T00:54:23.437Z,3.80
2017-07-28T00:56:49.683Z,3.07
2017-07-28T00:59:16.695Z,3.50
2017-07-28T01:01:43.747Z,3.90
2017-07-28T01:04:11.337Z,4.03
2017-07-28T01:06:38.279Z,4.53
2017-07-28T01:09:04.508Z,4.00
2017-07-28T01:11:30.685Z,4.70
2017-07-28T01:13:56.861Z,3.43
2017-07-28T01:16:23.038Z,3.37
2017-07-28T01:18:49.213Z,4.13
2017-07-28T01:21:15.443Z,4.67
2017-07-28T01:23:41.610Z,3.70
2017-07-28T01:26:07.798Z,3.70
2017-07-28T01:28:33.981Z,4.67
2017-07-28T01:31:00.167Z,3.70
2017-07-28T01:33:26.394Z,4.33
2017-07-28T01:35:52.613Z,3.70
2017-07-28T01:38:18.822Z,4.27
2017-07-28T01:40:45.738Z,4.53
2017-07-28T01:43:11.958Z,3.40
2017-07-28T01:45:38.874Z,4.00
2017-07-28T01:48:05.060Z,4.07
2017-07-28T01:50:32.005Z,4.10
2017-07-28T01:52:58.382Z,4.13
2017-07-28T01:55:24.566Z,4.37
2017-07-28T01:57:51.670Z,4.37
2017-07-28T02:00:17.899Z,4.10
2017-07-28T02:02:44.060Z,4.40
2017-07-28T02:05:10.409Z,3.93
2017-07-28T02:07:37.318Z,3.77
2017-07-28T02:10:03.497Z,4.10
2017-07-28T02:12:30.370Z,4.27
2017-07-28T02:14:56.555Z,3.60
2017-07-28T02:17:23.488Z,3.87
2017-07-28T02:19:49.728Z,3.87
2017-07-28T02:22:16.683Z,4.30
2017-07-28T02:24:43.616Z,3.80
2017-07-28T02:27:10.590Z,3.50
2017-07-28T02:29:36.785Z,3.57
2017-07-28T02:32:02.992Z,4.37
2017-07-28T02:34:29.185Z,4.57
2017-07-28T02:36:55.430Z,3.80
2017-07-28T02:39:21.591Z,4.40
2017-07-28T02:41:47.767Z,5.03
2017-07-28T02:44:13.968Z,4.60
2017-07-28T02:46:40.890Z,3.80
2017-07-28T02:49:07.063Z,4.20
2017-07-28T02:51:36.417Z,3.90
2017-07-28T02:54:03.284Z,3.93
2017-07-28T02:56:30.260Z,4.70
2017-07-28T02:58:56.477Z,4.90
2017-07-28T03:01:22.658Z,5.40
2017-07-28T03:03:50.460Z,5.00
2017-07-28T03:06:17.390Z,4.17
2017-07-28T03:08:43.575Z,4.10
2017-07-28T03:11:09.784Z,4.47
2017-07-28T03:13:36.117Z,4.13
2017-07-28T03:16:02.454Z,4.23
2017-07-28T03:18:29.055Z,3.60
2017-07-28T03:20:55.985Z,4.40
2017-07-28T03:23:22.938Z,5.57
2017-07-28T03:25:49.146Z,4.60
2017-07-28T03:28:15.427Z,5.00
2017-07-28T03:30:41.651Z,4.03
2017-07-28T03:33:08.619Z,4.80
2017-07-28T03:35:34.784Z,5.80
2017-07-28T03:38:01.069Z,5.27
2017-07-28T03:40:27.306Z,4.87
2017-07-28T03:42:53.492Z,5.63
2017-07-28T03:45:19.776Z,5.20
2017-07-28T03:47:46.019Z,5.30
2017-07-28T03:50:12.441Z,4.30
2017-07-28T03:52:38.894Z,4.80
2017-07-28T03:55:05.311Z,4.33
2017-07-28T03:57:31.495Z,4.90
2017-07-28T03:59:58.392Z,4.60
2017-07-28T04:02:24.762Z,5.07
2017-07-28T04:04:51.663Z,4.23
2017-07-28T04:07:18.206Z,5.20
2017-07-28T04:09:44.434Z,5.77
2017-07-28T04:12:10.595Z,3.97
2017-07-28T04:14:36.807Z,4.47
2017-07-28T04:17:03.042Z,4.87
2017-07-28T04:19:29.258Z,3.93
2017-07-28T04:21:55.447Z,3.80
2017-07-28T04:24:21.620Z,3.77
2017-07-28T04:26:47.823Z,4.00
2017-07-28T04:29:14.394Z,5.03
2017-07-28T04:31:40.585Z,5.10
2017-07-28T04:34:07.759Z,4.73
2017-07-28T04:36:33.963Z,3.90
2017-07-28T04:39:00.132Z,4.53
2017-07-28T04:41:26.338Z,4.43
2017-07-28T04:43:52.566Z,4.07
2017-07-28T04:46:18.748Z,4.70
2017-07-28T04:48:44.956Z,3.83
2017-07-28T04:51:11.866Z,4.77
2017-07-28T04:53:38.037Z,3.70
2017-07-28T04:56:04.989Z,3.77
2017-07-28T04:58:32.129Z,3.53
2017-07-28T05:00:59.074Z,3.63
2017-07-28T05:03:26.006Z,3.77
2017-07-28T05:05:52.167Z,3.83
2017-07-28T05:08:18.399Z,3.77
2017-07-28T05:10:44.591Z,2.90
2017-07-28T05:13:10.773Z,3.70
2017-07-28T05:15:36.917Z,3.10
2017-07-28T05:18:03.131Z,3.37
2017-07-28T05:20:30.166Z,3.50
2017-07-28T05:22:56.376Z,4.57
2017-07-28T05:25:22.594Z,3.50
2017-07-28T05:27:49.510Z,3.87
2017-07-28T05:30:15.701Z,6.20
2017-07-28T05:32:41.896Z,3.53
2017-07-28T05:35:08.834Z,3.40
2017-07-28T05:37:36.328Z,3.10
2017-07-28T05:40:02.546Z,3.63
2017-07-28T05:42:28.863Z,2.83
2017-07-28T05:44:55.817Z,3.40
2017-07-28T05:47:22.749Z,3.23
2017-07-28T05:49:49.773Z,3.00
2017-07-28T05:52:15.972Z,3.30
2017-07-28T05:54:42.180Z,2.80
2017-07-28T05:57:08.363Z,2.97
2017-07-28T05:59:35.459Z,3.10
2017-07-28T06:02:01.644Z,3.00
2017-07-28T06:04:27.974Z,3.90
2017-07-28T06:06:54.321Z,3.33
2017-07-28T06:09:20.475Z,2.87
2017-07-28T06:11:46.687Z,3.27
2017-07-28T06:14:13.662Z,3.17
2017-07-28T06:16:39.825Z,3.23
2017-07-28T06:19:06.046Z,2.63
2017-07-28T06:21:32.215Z,2.37
2017-07-28T06:23:58.816Z,3.17
2017-07-28T06:26:25.328Z,3.20
2017-07-28T06:28:51.587Z,2.80
2017-07-28T06:31:19.111Z,3.30
2017-07-28T06:33:45.345Z,2.63
2017-07-28T06:36:11.506Z,2.60
2017-07-28T06:38:38.114Z,2.73
2017-07-28T06:41:04.423Z,3.00
2017-07-28T06:43:31.089Z,3.10
2017-07-28T06:45:57.278Z,2.40
2017-07-28T06:48:24.317Z,2.77
2017-07-28T06:50:51.257Z,2.50
2017-07-28T06:53:17.438Z,2.00
2017-07-28T06:55:43.634Z,2.60
2017-07-28T06:58:09.789Z,2.40
2017-07-28T07:00:36.004Z,2.60
2017-07-28T07:03:02.234Z,2.60
2017-07-28T07:05:28.541Z,2.67
2017-07-28T07:07:55.466Z,2.87
2017-07-28T07:10:21.669Z,2.23
2017-07-28T07:12:47.875Z,2.23
2017-07-28T07:15:14.124Z,3.33
2017-07-28T07:17:40.328Z,3.10
2017-07-28T07:20:06.677Z,2.80
2017-07-28T07:22:32.891Z,2.60
2017-07-28T07:24:59.275Z,2.60
2017-07-28T07:27:26.222Z,3.57
2017-07-28T07:29:52.427Z,2.67
2017-07-28T07:32:18.647Z,2.63
2017-07-28T07:34:44.881Z,2.30
2017-07-28T07:37:11.179Z,2.13
2017-07-28T07:39:37.350Z,2.90
2017-07-28T07:42:03.557Z,3.03
2017-07-28T07:44:30.172Z,3.07
2017-07-28T07:46:56.814Z,2.73
2017-07-28T07:49:22.971Z,3.00
2017-07-28T07:51:49.175Z,3.30
2017-07-28T07:54:15.354Z,3.23
2017-07-28T07:56:43.065Z,3.10
2017-07-28T07:59:10.469Z,3.40
2017-07-28T08:01:36.646Z,3.13
2017-07-28T08:04:02.878Z,2.23
2017-07-28T08:06:29.036Z,2.83
2017-07-28T08:08:55.206Z,2.60
2017-07-28T08:11:22.185Z,5.10
2017-07-28T08:13:48.766Z,3.23
2017-07-28T08:16:14.947Z,2.97
2017-07-28T08:18:41.121Z,2.53
2017-07-28T08:21:07.296Z,2.20
2017-07-28T08:23:33.481Z,2.90
2017-07-28T08:25:59.662Z,1.83
2017-07-28T08:28:25.853Z,2.33
2017-07-28T08:30:52.812Z,2.67
2017-07-28T08:33:19.019Z,2.63
2017-07-28T08:35:45.939Z,2.87
2017-07-28T08:38:12.116Z,2.70
2017-07-28T08:40:38.262Z,2.53
2017-07-28T08:43:04.494Z,2.43
2017-07-28T08:45:30.694Z,2.40
2017-07-28T08:47:57.626Z,3.00
2017-07-28T08:50:24.527Z,3.07
2017-07-28T08:52:51.097Z,2.70
2017-07-28T08:55:17.287Z,2.90
2017-07-28T08:57:43.481Z,3.10
2017-07-28T09:00:09.698Z,3.37
2017-07-28T09:02:36.627Z,2.37
2017-07-28T09:05:02.946Z,3.70
2017-07-28T09:07:29.199Z,2.70
2017-07-28T09:09:56.168Z,3.03
2017-07-28T09:12:22.371Z,2.50
2017-07-28T09:14:49.319Z,2.30
2017-07-28T09:17:16.236Z,2.37
2017-07-28T09:19:42.447Z,2.80
2017-07-28T09:22:08.605Z,3.13
2017-07-28T09:24:34.778Z,2.40
2017-07-28T09:27:00.950Z,2.20
2017-07-28T09:29:27.225Z,3.00
2017-07-28T09:31:54.161Z,2.80
2017-07-28T09:34:21.095Z,3.27
2017-07-28T09:36:47.335Z,2.77
2017-07-28T09:39:14.392Z,3.27
2017-07-28T09:41:41.294Z,2.60
2017-07-28T09:44:07.510Z,2.97
2017-07-28T09:46:33.683Z,2.80
2017-07-28T09:49:00.591Z,3.07
2017-07-28T09:51:26.772Z,2.73
2017-07-28T09:53:52.921Z,5.00
2017-07-28T09:56:19.122Z,2.67
2017-07-28T09:58:46.086Z,2.50
2017-07-28T10:01:12.282Z,3.70
2017-07-28T10:03:39.244Z,2.90
2017-07-28T10:06:06.172Z,2.77
2017-07-28T10:08:33.145Z,2.40
2017-07-28T10:10:59.359Z,3.50
2017-07-28T10:13:26.289Z,2.83
2017-07-28T10:15:52.489Z,2.27
2017-07-28T10:18:18.662Z,2.40
2017-07-28T10:20:45.578Z,2.60
2017-07-28T10:23:11.804Z,2.83
2017-07-28T10:25:38.321Z,2.57
2017-07-28T10:28:04.563Z,2.20
2017-07-28T10:30:30.749Z,2.80
2017-07-28T10:32:56.923Z,2.70
2017-07-28T10:35:23.089Z,2.17
2017-07-28T10:37:50.045Z,2.57
2017-07-28T10:40:16.255Z,2.53
2017-07-28T10:42:43.174Z,2.40
2017-07-28T10:45:09.409Z,2.47
2017-07-28T10:47:35.622Z,2.73
2017-07-28T10:50:01.816Z,2.17
2017-07-28T10:52:28.032Z,2.30
2017-07-28T10:54:54.225Z,3.00
2017-07-28T10:57:20.439Z,2.60
2017-07-28T10:59:46.609Z,2.30
2017-07-28T11:02:12.805Z,2.20
2017-07-28T11:04:38.980Z,2.20
2017-07-28T11:07:05.220Z,2.30
2017-07-28T11:09:31.399Z,2.40
2017-07-28T11:11:57.604Z,2.47
2017-07-28T11:14:23.776Z,3.00
2017-07-28T11:16:50.698Z,2.70
2017-07-28T11:19:16.895Z,2.60
2017-07-28T11:21:43.080Z,2.47
2017-07-28T11:24:09.263Z,2.50
2017-07-28T11:26:35.510Z,3.17
2017-07-28T11:29:01.703Z,2.60
2017-07-28T11:31:27.878Z,2.20
2017-07-28T11:33:54.829Z,1.90
2017-07-28T11:36:21.736Z,2.33
2017-07-28T11:38:47.916Z,2.30
2017-07-28T11:41:14.124Z,2.00
2017-07-28T11:43:41.061Z,2.10
2017-07-28T11:46:07.278Z,2.50
2017-07-28T11:48:33.459Z,2.17
2017-07-28T11:50:59.841Z,2.17
2017-07-28T11:53:26.094Z,2.70
2017-07-28T11:55:52.627Z,3.30
2017-07-28T11:58:19.634Z,3.03
2017-07-28T12:00:45.902Z,2.90
2017-07-28T12:03:12.835Z,2.40
2017-07-28T12:05:39.225Z,2.67
2017-07-28T12:08:05.454Z,2.90
2017-07-28T12:10:31.847Z,3.70
2017-07-28T12:12:58.774Z,4.57
2017-07-28T12:15:24.997Z,3.63
2017-07-28T12:17:51.186Z,4.73
2017-07-28T12:20:17.440Z,2.70
2017-07-28T12:22:43.736Z,2.70
2017-07-28T12:25:09.903Z,3.43
2017-07-28T12:27:36.066Z,2.70
2017-07-28T12:30:17.938Z,3.03
2017-07-28T12:32:44.175Z,3.07
2017-07-28T12:35:10.366Z,3.03
2017-07-28T12:37:36.918Z,2.90
2017-07-28T12:40:03.101Z,2.60
2017-07-28T12:42:29.301Z,2.47
2017-07-28T12:44:55.551Z,2.30
2017-07-28T12:47:22.453Z,2.87
2017-07-28T12:49:49.357Z,2.57
2017-07-28T12:52:15.538Z,2.33
2017-07-28T12:54:41.750Z,2.53
2017-07-28T12:57:07.943Z,2.53
2017-07-28T12:59:34.103Z,2.67
2017-07-28T13:02:00.332Z,2.10
2017-07-28T13:04:26.505Z,1.80
2017-07-28T13:06:53.438Z,2.50
2017-07-28T13:09:20.418Z,2.97
2017-07-28T13:11:47.401Z,1.80
2017-07-28T13:14:14.004Z,3.17
2017-07-28T13:16:40.188Z,2.10
2017-07-28T13:19:06.394Z,2.13
2017-07-28T13:21:32.555Z,1.73
2017-07-28T13:23:59.484Z,1.67
2017-07-28T13:26:25.705Z,1.40
2017-07-28T13:28:51.923Z,4.90
2017-07-28T13:31:18.104Z,4.20
2017-07-28T13:33:44.326Z,3.83
2017-07-28T13:36:10.513Z,2.40
2017-07-28T13:38:36.677Z,2.73
2017-07-28T13:41:04.024Z,2.13
2017-07-28T13:43:31.188Z,2.23
2017-07-28T13:46:03.606Z,1.30
2017-07-28T13:48:29.935Z,1.43
2017-07-28T13:50:56.161Z,1.73
2017-07-28T13:53:22.379Z,1.50
2017-07-28T13:55:48.606Z,1.97
2017-07-28T13:58:14.852Z,1.50
2017-07-28T14:00:41.038Z,1.80
2017-07-28T14:03:08.018Z,1.60
2017-07-28T14:05:34.273Z,1.53
2017-07-28T14:08:01.086Z,1.93
2017-07-28T14:10:27.288Z,1.30
2017-07-28T14:12:54.241Z,1.10
2017-07-28T14:15:20.403Z,1.37
2017-07-28T14:17:46.550Z,3.67
2017-07-28T14:20:12.784Z,24.27
2017-07-28T14:22:40.109Z,3.10
2017-07-28T14:25:06.392Z,2.40
2017-07-28T14:27:33.360Z,2.23
2017-07-28T14:29:59.536Z,2.30
2017-07-28T14:32:25.778Z,3.40
2017-07-28T14:34:51.995Z,3.30
2017-07-28T14:37:18.155Z,3.57
2017-07-28T14:39:45.088Z,3.00
2017-07-28T14:42:12.031Z,2.53
2017-07-28T14:44:38.743Z,2.40
2017-07-28T14:47:04.925Z,2.40
2017-07-28T14:49:31.134Z,2.50
2017-07-28T14:51:57.331Z,3.03
2017-07-28T14:54:23.682Z,2.73
2017-07-28T14:56:49.975Z,3.03
2017-07-28T14:59:16.245Z,2.70
2017-07-28T15:01:42.846Z,2.77
2017-07-28T15:04:09.037Z,2.53
2017-07-28T15:06:35.249Z,2.10
2017-07-28T15:09:02.295Z,1.80
2017-07-28T15:11:28.463Z,1.90
2017-07-28T15:13:55.094Z,2.10
2017-07-28T15:16:22.433Z,1.53
2017-07-28T15:18:49.298Z,1.83
2017-07-28T15:21:15.483Z,1.47
2017-07-28T15:23:41.666Z,1.90
2017-07-28T15:26:07.894Z,2.40
2017-07-28T15:28:34.150Z,2.00
2017-07-28T15:31:00.352Z,1.97
2017-07-28T15:33:26.533Z,2.00
2017-07-28T15:35:54.149Z,1.90
2017-07-28T15:38:20.369Z,1.80
2017-07-28T15:40:46.549Z,1.87
2017-07-28T15:43:12.825Z,1.87
2017-07-28T15:45:39.031Z,2.03
2017-07-28T15:48:05.601Z,1.90
2017-07-28T15:50:31.797Z,2.10
2017-07-28T15:52:58.015Z,1.80
2017-07-28T15:55:24.207Z,1.90
2017-07-28T15:57:50.492Z,2.33
2017-07-28T16:00:16.735Z,2.00
2017-07-28T16:02:42.929Z,2.10
2017-07-28T16:05:10.794Z,2.27
2017-07-28T16:07:37.745Z,1.40
2017-07-28T16:10:04.792Z,1.80
2017-07-28T16:12:31.787Z,1.33
2017-07-28T16:14:57.995Z,2.00
2017-07-28T16:17:24.240Z,2.37
2017-07-28T16:19:50.463Z,1.57
2017-07-28T16:22:16.685Z,1.90
2017-07-28T16:24:42.876Z,1.50
2017-07-28T16:27:09.779Z,1.60
2017-07-28T16:29:35.945Z,1.43
2017-07-28T16:32:02.169Z,1.67
2017-07-28T16:34:28.372Z,2.23
2017-07-28T16:36:54.587Z,5.43
2017-07-28T16:39:21.154Z,3.80
2017-07-28T16:41:47.324Z,2.37
2017-07-28T16:44:13.535Z,3.13
2017-07-28T16:46:40.724Z,2.70
2017-07-28T16:49:07.248Z,3.70
2017-07-28T16:51:34.045Z,3.30
2017-07-28T16:54:01.217Z,3.27
2017-07-28T16:56:28.453Z,3.70
2017-07-28T16:58:56.136Z,1.90
2017-07-28T17:01:22.607Z,2.43
2017-07-28T17:03:49.926Z,2.60
2017-07-28T17:06:16.970Z,2.90
2017-07-28T17:08:43.994Z,2.23
2017-07-28T17:11:10.275Z,1.80
2017-07-28T17:13:38.806Z,2.43
2017-07-28T17:16:05.902Z,2.43
2017-07-28T17:18:34.038Z,1.70
2017-07-28T17:21:00.242Z,1.93
2017-07-28T17:23:26.554Z,2.40
2017-07-28T17:25:52.911Z,2.57
2017-07-28T17:28:19.853Z,2.20
2017-07-28T17:30:46.042Z,2.07
2017-07-28T17:33:12.263Z,2.37
2017-07-28T17:35:38.466Z,1.87
2017-07-28T17:38:04.659Z,2.40
2017-07-28T17:40:30.902Z,1.83
2017-07-28T17:42:57.124Z,1.80
2017-07-28T17:45:23.404Z,2.07
2017-07-28T17:47:49.619Z,1.67
2017-07-28T17:50:16.613Z,2.17
2017-07-28T17:52:42.756Z,1.77
2017-07-28T17:55:09.817Z,2.03
2017-07-28T17:57:36.023Z,1.83
2017-07-28T18:00:02.290Z,2.57
2017-07-28T18:02:28.502Z,2.60
2017-07-28T18:04:54.696Z,2.10
2017-07-28T18:07:20.948Z,2.10
2017-07-28T18:09:47.136Z,2.13
2017-07-28T18:12:13.341Z,2.40
2017-07-28T18:14:40.374Z,1.90
2017-07-28T18:17:06.647Z,2.43
2017-07-28T18:19:32.894Z,2.40
2017-07-28T18:21:59.108Z,1.93
2017-07-28T18:24:25.318Z,2.17
2017-07-28T18:26:52.206Z,2.40
2017-07-28T18:29:18.413Z,2.50
2017-07-28T18:31:44.640Z,1.87
2017-07-28T18:34:10.885Z,2.37
2017-07-28T18:36:37.122Z,1.93
2017-07-28T18:39:03.391Z,2.97
2017-07-28T18:41:30.314Z,2.93
2017-07-28T18:43:56.559Z,3.13
2017-07-28T18:46:23.545Z,3.30
2017-07-28T18:48:49.731Z,2.93
2017-07-28T18:51:16.683Z,3.03
2017-07-28T18:53:42.885Z,2.80
2017-07-28T18:56:09.132Z,2.60
2017-07-28T18:58:35.286Z,2.47
2017-07-28T19:01:02.276Z,2.50
2017-07-28T19:03:28.588Z,2.40
2017-07-28T19:05:54.887Z,3.10
2017-07-28T19:08:21.128Z,3.17
2017-07-28T19:10:47.445Z,3.10
2017-07-28T19:13:14.533Z,3.30
2017-07-28T19:15:41.030Z,3.00
2017-07-28T19:18:08.125Z,2.73
2017-07-28T19:20:34.569Z,3.17
2017-07-28T19:23:01.000Z,3.67
2017-07-28T19:25:27.507Z,3.43
2017-07-28T19:27:54.016Z,3.70
2017-07-28T19:30:21.841Z,4.80
2017-07-28T19:32:48.998Z,3.83
2017-07-28T19:35:15.787Z,4.17
2017-07-28T19:37:43.943Z,5.00
2017-07-28T19:40:11.483Z,4.70
2017-07-28T19:42:38.618Z,5.63
2017-07-28T19:45:05.367Z,5.27
2017-07-28T19:47:31.747Z,6.33
2017-07-28T19:49:58.644Z,6.13
2017-07-28T19:52:25.916Z,6.17
2017-07-28T19:54:52.266Z,5.63
2017-07-28T19:57:19.615Z,5.87
2017-07-28T19:59:46.959Z,6.13
2017-07-28T20:02:14.196Z,5.63
2017-07-28T20:04:41.432Z,4.70
2017-07-28T20:07:07.668Z,4.40
2017-07-28T20:09:33.875Z,4.40
2017-07-28T20:12:00.231Z,3.67
2017-07-28T20:14:26.491Z,3.90
2017-07-28T20:16:52.724Z,3.77
2017-07-28T20:19:18.983Z,4.57
2017-07-28T20:21:45.220Z,3.97
2017-07-28T20:24:11.375Z,3.60
2017-07-28T20:26:37.607Z,3.93
2017-07-28T20:29:03.804Z,4.37
2017-07-28T20:31:29.981Z,3.60
2017-07-28T20:33:57.042Z,3.30
2017-07-28T20:36:23.969Z,242.73
2017-07-28T20:38:50.393Z,565.77
2017-07-28T20:41:16.609Z,304.80
2017-07-28T20:43:42.815Z,248.43
2017-07-28T20:46:09.021Z,27.60
2017-07-28T20:48:35.934Z,10.60
2017-07-28T20:51:02.541Z,4.97
2017-07-28T20:53:29.113Z,4.00
2017-07-28T20:55:55.316Z,3.77
2017-07-28T20:58:21.656Z,4.60
2017-07-28T21:00:47.839Z,3.90
2017-07-28T21:03:14.928Z,4.10
2017-07-28T21:05:41.399Z,4.10
2017-07-28T21:08:07.665Z,4.50
2017-07-28T21:10:33.950Z,3.63
2017-07-28T21:13:00.119Z,3.30
2017-07-28T21:15:26.332Z,3.70
2017-07-28T21:17:55.003Z,4.00
2017-07-28T21:20:22.004Z,3.90
2017-07-28T21:22:48.395Z,4.13
2017-07-28T21:25:16.098Z,5.17
2017-07-28T21:27:42.374Z,5.70
2017-07-28T21:30:09.337Z,5.40
2017-07-28T21:32:35.742Z,5.00
2017-07-28T21:35:01.935Z,5.07
2017-07-28T21:37:28.159Z,4.30
2017-07-28T21:39:54.710Z,3.80
2017-07-28T21:42:20.880Z,5.13
2017-07-28T21:44:47.829Z,4.40
2017-07-28T21:47:14.779Z,3.97
2017-07-28T21:49:42.395Z,4.30
2017-07-28T21:52:08.615Z,4.63
2017-07-28T21:54:36.006Z,3.63
2017-07-28T21:57:05.144Z,3.97
2017-07-28T21:59:32.375Z,3.50
2017-07-28T22:01:59.434Z,4.20
2017-07-28T22:04:26.375Z,4.60
2017-07-28T22:06:52.611Z,3.67
2017-07-28T22:09:19.706Z,4.50
2017-07-28T22:11:46.940Z,3.73
2017-07-28T22:14:13.376Z,4.33
2017-07-28T22:16:39.610Z,3.60
2017-07-28T22:19:05.788Z,3.00
2017-07-28T22:21:32.771Z,3.27
2017-07-28T22:23:58.961Z,3.63
2017-07-28T22:26:25.965Z,3.33
2017-07-28T22:28:52.697Z,3.93
2017-07-28T22:31:18.997Z,3.50
2017-07-28T22:33:45.954Z,2.87
2017-07-28T22:36:12.306Z,4.00
2017-07-28T22:38:38.495Z,4.47
2017-07-28T22:41:05.551Z,3.57
2017-07-28T22:43:32.856Z,2.97
2017-07-28T22:45:59.044Z,3.20
2017-07-28T22:48:25.266Z,3.57
2017-07-28T22:50:51.474Z,3.03
2017-07-28T22:53:18.525Z,3.90
2017-07-28T22:55:45.466Z,3.20
2017-07-28T22:58:14.116Z,4.10
2017-07-28T23:00:40.385Z,4.30
2017-07-28T23:03:07.319Z,3.30
2017-07-28T23:05:33.713Z,3.47
2017-07-28T23:08:01.471Z,3.53
2017-07-28T23:10:27.924Z,4.00
2017-07-28T23:12:55.267Z,3.70
2017-07-28T23:15:21.503Z,3.17
2017-07-28T23:17:47.852Z,3.53
2017-07-28T23:20:14.060Z,4.50
2017-07-28T23:22:40.303Z,3.83
2017-07-28T23:25:06.978Z,3.23
2017-07-28T23:27:34.473Z,4.60
2017-07-28T23:30:00.702Z,4.73
2017-07-28T23:32:27.106Z,3.70
2017-07-28T23:34:53.337Z,4.53
2017-07-28T23:37:21.157Z,4.13
2017-07-28T23:39:47.363Z,3.70
2017-07-28T23:42:13.694Z,3.37
2017-07-28T23:44:39.831Z,3.87
2017-07-28T23:47:06.014Z,3.40
2017-07-28T23:49:37.102Z,3.90
2017-07-28T23:52:03.483Z,3.60
2017-07-28T23:54:30.415Z,4.20
2017-07-28T23:56:56.914Z,3.20
2017-07-28T23:59:23.152Z,3.97
